Time;durP1;ratioP1;P1;durP2;ratioP2;P2;SDS_P1;SDS_P2;PMS_P1;PMS_P2;Temp;Humidity;BMP_temperature;BMP_pressure;BME280_temperature;BME280_humidity;BME280_pressure;Samples;Min_cycle;Max_cycle;Signal;HPM_P1;HPM_P2
2024/01/26 00:01:41;;;;;;;97.55;31.13;;;7.90;99.90;;;;;;4877886;29;20462;-77
2024/01/26 00:04:07;;;;;;;109.27;32.67;;;7.90;99.90;;;;;;4857580;29;20454;-77
2024/01/26 00:06:32;;;;;;;106.35;32.72;;;8.00;99.90;;;;;;4876402;29;20456;-78
2024/01/26 00:09:15;;;;;;;101.93;32.07;;;8.00;99.90;;;;;;4865921;29;20501;-77
2024/01/26 00:11:42;;;;;;;100.85;32.47;;;8.00;99.90;;;;;;4869318;29;20435;-77
2024/01/26 00:14:08;;;;;;;96.85;31.63;;;8.10;99.90;;;;;;4871623;29;20996;-77
2024/01/26 00:16:36;;;;;;;110.47;33.17;;;8.10;99.90;;;;;;4883195;29;20429;-76
2024/01/26 00:19:01;;;;;;;97.47;32.05;;;8.10;99.90;;;;;;4877475;29;20426;-76
2024/01/26 00:21:27;;;;;;;94.00;31.77;;;8.10;99.90;;;;;;4878124;29;20839;-76
2024/01/26 00:23:53;;;;;;;98.30;31.85;;;8.10;99.90;;;;;;4876055;29;20485;-77
2024/01/26 00:26:18;;;;;;;102.63;32.97;;;8.10;99.90;;;;;;4883080;29;20949;-77
2024/01/26 00:28:44;;;;;;;93.90;31.42;;;8.10;99.90;;;;;;4886518;29;20603;-77
2024/01/26 00:31:17;;;;;;;100.53;31.93;;;8.20;99.90;;;;;;4878922;29;20420;-77
2024/01/26 00:33:43;;;;;;;94.05;31.83;;;8.20;99.90;;;;;;4882956;29;20857;-76
2024/01/26 00:36:10;;;;;;;99.20;33.08;;;8.30;99.90;;;;;;4880052;29;20421;-76
2024/01/26 00:38:35;;;;;;;97.82;31.83;;;8.30;99.90;;;;;;4883106;29;20476;-76
2024/01/26 00:41:01;;;;;;;93.20;31.50;;;8.30;99.90;;;;;;4879683;29;20416;-77
2024/01/26 00:43:27;;;;;;;94.93;32.42;;;8.30;99.90;;;;;;4873573;29;20874;-77
2024/01/26 00:45:53;;;;;;;91.13;32.00;;;8.30;99.90;;;;;;4878767;29;20428;-77
2024/01/26 00:48:18;;;;;;;92.65;31.70;;;8.30;99.90;;;;;;4880937;29;20423;-77
2024/01/26 00:50:45;;;;;;;97.80;32.45;;;8.30;99.90;;;;;;4878418;29;20423;-77
2024/01/26 00:53:10;;;;;;;97.20;32.45;;;8.40;99.90;;;;;;4881255;29;20426;-77
2024/01/26 00:55:36;;;;;;;104.05;34.55;;;8.30;99.90;;;;;;4878319;29;20420;-76
2024/01/26 00:58:02;;;;;;;101.53;32.60;;;8.40;99.90;;;;;;4877624;29;20463;-76
2024/01/26 01:00:29;;;;;;;98.70;33.60;;;8.40;99.90;;;;;;4878444;29;20739;-76
2024/01/26 01:02:54;;;;;;;107.97;34.80;;;8.40;99.90;;;;;;4880958;29;20457;-77
2024/01/26 01:05:20;;;;;;;113.63;35.27;;;8.40;99.90;;;;;;4877586;29;20416;-77
2024/01/26 01:07:46;;;;;;;106.68;35.95;;;8.50;99.90;;;;;;4879431;29;20514;-77
2024/01/26 01:10:12;;;;;;;120.18;37.25;;;8.40;99.90;;;;;;4877150;29;21168;-77
2024/01/26 01:12:43;;;;;;;116.18;36.50;;;8.50;99.90;;;;;;4879375;29;20415;-77
2024/01/26 01:15:11;;;;;;;106.80;35.20;;;8.50;99.90;;;;;;4877389;29;20412;-77
2024/01/26 01:17:44;;;;;;;106.07;36.10;;;8.50;99.90;;;;;;4877477;29;20425;-77
2024/01/26 01:20:11;;;;;;;104.77;36.97;;;8.50;99.90;;;;;;4876386;29;20420;-77
2024/01/26 01:22:37;;;;;;;108.68;36.67;;;8.50;99.90;;;;;;4876154;29;20516;-77
2024/01/26 01:25:04;;;;;;;115.07;37.03;;;8.50;99.90;;;;;;4875996;29;20456;-77
2024/01/26 01:27:31;;;;;;;107.40;37.17;;;8.60;99.90;;;;;;4864065;29;20483;-77
2024/01/26 01:29:57;;;;;;;102.50;35.88;;;8.60;99.90;;;;;;4881352;29;20424;-77
2024/01/26 01:32:23;;;;;;;99.03;34.83;;;8.60;99.90;;;;;;4867902;29;20441;-77
2024/01/26 01:34:48;;;;;;;104.00;36.35;;;8.60;99.90;;;;;;4872059;29;20449;-78
2024/01/26 01:37:14;;;;;;;98.67;35.33;;;8.70;99.90;;;;;;4856313;29;20443;-77
2024/01/26 01:39:40;;;;;;;99.50;35.75;;;8.70;99.90;;;;;;4871719;29;20509;-78
2024/01/26 01:42:13;;;;;;;102.17;36.60;;;8.70;99.90;;;;;;4876292;29;21021;-77
2024/01/26 01:44:42;;;;;;;105.03;36.55;;;8.80;99.90;;;;;;4857298;29;20509;-77
2024/01/26 01:47:12;;;;;;;101.95;36.50;;;8.80;99.90;;;;;;4875914;29;20462;-77
2024/01/26 01:49:38;;;;;;;93.70;35.13;;;8.80;99.90;;;;;;4876780;29;21056;-77
2024/01/26 01:52:07;;;;;;;89.85;34.80;;;8.80;99.90;;;;;;4876282;29;20776;-77
2024/01/26 01:54:33;;;;;;;92.30;35.03;;;8.80;99.90;;;;;;4860549;29;20510;-77
2024/01/26 01:57:02;;;;;;;84.35;34.22;;;8.80;99.90;;;;;;4876265;29;20513;-77
2024/01/26 01:59:28;;;;;;;87.90;34.42;;;8.90;99.90;;;;;;4859038;29;20427;-77
2024/01/26 02:01:54;;;;;;;86.65;33.97;;;8.90;99.90;;;;;;4858029;29;20500;-78
2024/01/26 02:04:19;;;;;;;79.63;32.33;;;8.90;99.90;;;;;;4868027;29;20511;-77
2024/01/26 02:06:59;;;;;;;80.00;32.33;;;8.90;99.90;;;;;;4873819;29;20413;-77
2024/01/26 02:09:25;;;;;;;79.30;32.45;;;8.90;99.90;;;;;;4873541;29;20440;-77
2024/01/26 02:11:52;;;;;;;78.18;32.88;;;9.00;99.90;;;;;;4878290;29;20429;-77
2024/01/26 02:14:18;;;;;;;79.28;32.92;;;9.00;99.90;;;;;;4882389;29;20419;-77
2024/01/26 02:16:58;;;;;;;81.20;32.93;;;9.00;99.90;;;;;;4877955;29;20775;-77
2024/01/26 02:19:24;;;;;;;76.25;31.83;;;9.10;99.90;;;;;;4889691;29;20565;-77
2024/01/26 02:21:50;;;;;;;73.53;31.90;;;9.00;99.90;;;;;;4864833;29;20429;-77
2024/01/26 02:24:16;;;;;;;74.83;32.00;;;9.10;99.90;;;;;;4890943;29;20809;-77
2024/01/26 02:26:42;;;;;;;76.93;32.53;;;9.10;99.90;;;;;;4888080;29;20422;-77
2024/01/26 02:29:08;;;;;;;76.28;34.05;;;9.10;99.90;;;;;;4873858;29;20462;-77
2024/01/26 02:31:33;;;;;;;70.43;33.13;;;9.10;99.90;;;;;;4887862;29;20426;-77
2024/01/26 02:33:59;;;;;;;70.40;31.97;;;9.10;99.90;;;;;;4874189;29;20454;-77
2024/01/26 02:36:27;;;;;;;72.30;32.03;;;9.10;99.90;;;;;;4887260;29;20424;-77
2024/01/26 02:38:53;;;;;;;64.65;32.08;;;9.10;99.90;;;;;;4878003;29;20424;-77
2024/01/26 02:41:18;;;;;;;65.77;31.73;;;9.10;99.90;;;;;;4890017;29;20415;-77
2024/01/26 02:43:44;;;;;;;65.97;31.95;;;9.20;99.90;;;;;;4887443;29;20957;-77
2024/01/26 02:46:10;;;;;;;64.40;31.23;;;9.20;99.90;;;;;;4888976;29;20422;-77
2024/01/26 02:48:35;;;;;;;63.28;31.83;;;9.20;99.90;;;;;;4886726;29;20419;-77
2024/01/26 02:51:01;;;;;;;60.97;30.25;;;9.20;99.90;;;;;;4879759;29;20422;-77
2024/01/26 02:53:27;;;;;;;58.80;29.87;;;9.20;99.90;;;;;;4886896;29;21095;-77
2024/01/26 02:55:52;;;;;;;56.10;30.40;;;9.20;99.90;;;;;;4886830;29;21015;-77
2024/01/26 02:58:18;;;;;;;54.00;30.20;;;9.20;99.90;;;;;;4885224;29;20420;-77
2024/01/26 03:00:44;;;;;;;52.95;29.65;;;9.20;99.90;;;;;;4886630;29;20813;-77
2024/01/26 03:03:09;;;;;;;54.38;30.48;;;9.30;99.90;;;;;;4884991;29;20456;-78
2024/01/26 03:05:35;;;;;;;49.60;28.53;;;9.30;99.90;;;;;;4857300;29;20515;-77
2024/01/26 03:08:01;;;;;;;45.78;28.35;;;9.30;99.90;;;;;;4874887;29;20982;-77
2024/01/26 03:10:27;;;;;;;50.53;28.97;;;9.30;99.90;;;;;;4905030;29;20418;-77
2024/01/26 03:12:52;;;;;;;44.70;27.90;;;9.30;99.90;;;;;;4896038;29;20454;-77
2024/01/26 03:15:18;;;;;;;47.45;28.30;;;9.30;99.90;;;;;;4907130;29;20417;-78
2024/01/26 03:17:44;;;;;;;48.28;28.02;;;9.30;99.90;;;;;;4907045;29;20421;-77
2024/01/26 03:20:09;;;;;;;50.50;28.43;;;9.30;99.90;;;;;;4907743;29;20432;-77
2024/01/26 03:22:35;;;;;;;46.72;28.58;;;9.30;99.90;;;;;;4910456;29;20810;-77
2024/01/26 03:25:03;;;;;;;44.33;27.93;;;9.40;99.90;;;;;;4910612;29;20480;-75
2024/01/26 03:27:29;;;;;;;47.28;28.15;;;9.40;99.90;;;;;;4910209;29;20442;-76
2024/01/26 03:29:54;;;;;;;42.95;28.05;;;9.40;99.90;;;;;;4911050;29;21918;-76
2024/01/26 03:32:20;;;;;;;43.93;27.17;;;9.40;99.90;;;;;;4908612;29;20421;-77
2024/01/26 03:34:45;;;;;;;43.23;26.57;;;9.40;99.90;;;;;;4900254;29;20468;-77
2024/01/26 03:37:11;;;;;;;43.53;27.10;;;9.40;99.90;;;;;;4909154;29;20836;-76
2024/01/26 03:39:37;;;;;;;41.70;26.03;;;9.40;99.90;;;;;;4909507;29;20485;-77
2024/01/26 03:42:03;;;;;;;40.88;25.98;;;9.40;99.90;;;;;;4909164;29;20790;-77
2024/01/26 03:44:29;;;;;;;39.72;26.20;;;9.40;99.90;;;;;;4909340;29;20409;-77
2024/01/26 03:46:54;;;;;;;39.85;25.52;;;9.40;99.90;;;;;;4908865;29;20421;-76
2024/01/26 03:49:20;;;;;;;39.37;26.03;;;9.40;99.90;;;;;;4908227;29;20492;-77
2024/01/26 03:51:46;;;;;;;36.53;24.63;;;9.40;99.90;;;;;;4909398;29;20951;-76
2024/01/26 03:54:11;;;;;;;40.87;25.50;;;9.40;99.90;;;;;;4908375;29;20448;-76
2024/01/26 03:56:37;;;;;;;38.13;24.30;;;9.40;99.90;;;;;;4900497;29;20414;-76
2024/01/26 03:59:02;;;;;;;35.43;23.17;;;9.50;99.90;;;;;;4899146;29;20414;-77
2024/01/26 04:01:28;;;;;;;36.92;24.13;;;9.50;99.90;;;;;;4908942;29;20934;-77
2024/01/26 04:03:54;;;;;;;37.43;24.07;;;9.50;99.90;;;;;;4906503;29;20500;-77
2024/01/26 04:06:20;;;;;;;34.83;22.35;;;9.50;99.90;;;;;;4907514;29;20417;-77
2024/01/26 04:08:45;;;;;;;34.93;22.50;;;9.50;99.90;;;;;;4887366;29;20522;-76
2024/01/26 04:11:11;;;;;;;35.03;22.30;;;9.50;99.90;;;;;;4880330;29;20443;-76
2024/01/26 04:13:36;;;;;;;34.13;21.70;;;9.50;99.90;;;;;;4877861;29;20416;-77
2024/01/26 04:16:02;;;;;;;32.47;20.67;;;9.50;99.90;;;;;;4887726;29;20415;-77
2024/01/26 04:18:28;;;;;;;32.57;20.50;;;9.60;99.90;;;;;;4883702;29;20417;-77
2024/01/26 04:20:53;;;;;;;32.25;19.80;;;9.60;99.90;;;;;;4870655;29;20450;-77
2024/01/26 04:23:19;;;;;;;32.80;20.77;;;9.60;99.90;;;;;;4882472;29;20436;-77
2024/01/26 04:25:44;;;;;;;32.13;19.77;;;9.60;99.90;;;;;;4887273;29;20414;-77
2024/01/26 04:28:10;;;;;;;33.73;20.37;;;9.60;99.90;;;;;;4881612;29;20787;-77
2024/01/26 04:30:36;;;;;;;31.57;19.27;;;9.60;99.90;;;;;;4881817;29;20470;-77
2024/01/26 04:33:01;;;;;;;32.75;20.40;;;9.60;99.90;;;;;;4875645;29;20935;-77
2024/01/26 04:35:27;;;;;;;32.17;20.20;;;9.60;99.90;;;;;;4886271;29;20438;-77
2024/01/26 04:37:53;;;;;;;31.98;19.73;;;9.60;99.90;;;;;;4881176;29;20427;-77
2024/01/26 04:40:19;;;;;;;31.20;20.27;;;9.70;99.90;;;;;;4886410;29;20932;-77
2024/01/26 04:42:45;;;;;;;34.78;20.70;;;9.70;99.90;;;;;;4875971;29;20487;-77
2024/01/26 04:45:10;;;;;;;33.77;19.77;;;9.60;99.90;;;;;;4875803;29;20812;-77
2024/01/26 04:47:36;;;;;;;30.77;19.45;;;9.70;99.90;;;;;;4875645;29;20417;-77
2024/01/26 04:50:02;;;;;;;31.98;20.17;;;9.70;99.90;;;;;;4875819;29;20900;-77
2024/01/26 04:52:28;;;;;;;30.83;19.50;;;9.70;99.90;;;;;;4880688;29;20427;-77
2024/01/26 04:54:54;;;;;;;32.30;20.50;;;9.70;99.90;;;;;;4867395;29;20482;-77
2024/01/26 04:57:20;;;;;;;32.00;19.90;;;9.80;99.90;;;;;;4876164;29;20424;-77
2024/01/26 04:59:45;;;;;;;31.50;19.93;;;9.80;99.90;;;;;;4884672;29;20419;-77
2024/01/26 05:02:11;;;;;;;30.23;19.85;;;9.80;99.90;;;;;;4880626;29;20423;-77
2024/01/26 05:04:37;;;;;;;29.80;19.67;;;9.80;99.90;;;;;;4885213;29;20790;-77
2024/01/26 05:07:02;;;;;;;32.38;20.50;;;9.80;99.90;;;;;;4872739;29;20436;-77
2024/01/26 05:09:28;;;;;;;30.48;19.73;;;9.90;99.90;;;;;;4903276;29;20417;-77
2024/01/26 05:11:54;;;;;;;32.57;20.53;;;9.90;99.90;;;;;;4912702;29;20423;-77
2024/01/26 05:14:21;;;;;;;30.67;20.30;;;9.90;99.90;;;;;;4904399;29;20414;-77
2024/01/26 05:16:47;;;;;;;32.10;20.60;;;10.00;99.90;;;;;;4890978;29;20435;-77
2024/01/26 05:19:12;;;;;;;27.90;19.55;;;9.90;99.90;;;;;;4903715;29;20417;-77
2024/01/26 05:21:40;;;;;;;30.10;20.50;;;10.00;99.90;;;;;;4907951;29;20420;-77
2024/01/26 05:24:06;;;;;;;30.90;20.02;;;10.00;99.90;;;;;;4908624;29;20459;-77
2024/01/26 05:26:32;;;;;;;30.92;20.25;;;10.00;99.90;;;;;;4907948;29;20413;-77
2024/01/26 05:28:57;;;;;;;32.00;19.27;;;10.00;99.90;;;;;;4909774;29;20449;-77
2024/01/26 05:31:23;;;;;;;27.75;18.20;;;10.10;99.90;;;;;;4907820;29;20425;-77
2024/01/26 05:33:48;;;;;;;28.33;18.57;;;10.10;99.90;;;;;;4908173;29;20420;-77
2024/01/26 05:36:14;;;;;;;26.63;17.48;;;10.10;99.90;;;;;;4906295;29;20496;-77
2024/01/26 05:38:39;;;;;;;26.87;18.03;;;10.10;99.90;;;;;;4907800;29;20416;-77
2024/01/26 05:41:05;;;;;;;26.65;18.30;;;10.10;99.90;;;;;;4906072;29;20795;-77
2024/01/26 05:43:30;;;;;;;26.57;18.20;;;10.20;99.90;;;;;;4907148;29;20512;-78
2024/01/26 05:45:56;;;;;;;25.67;17.70;;;10.20;99.90;;;;;;4904260;29;20424;-78
2024/01/26 05:48:22;;;;;;;26.77;18.03;;;10.20;99.90;;;;;;4907412;29;20496;-78
2024/01/26 05:50:48;;;;;;;25.42;17.50;;;10.20;99.90;;;;;;4904629;29;20780;-78
2024/01/26 05:53:13;;;;;;;26.67;18.73;;;10.20;99.90;;;;;;4906084;29;20472;-78
2024/01/26 05:55:39;;;;;;;28.40;18.57;;;10.30;99.90;;;;;;4904841;29;20413;-77
2024/01/26 05:58:04;;;;;;;26.80;19.67;;;10.20;99.90;;;;;;4906155;29;20421;-78
2024/01/26 06:00:30;;;;;;;31.53;19.67;;;10.30;99.90;;;;;;4904448;29;20419;-78
2024/01/26 06:02:56;;;;;;;29.50;19.80;;;10.30;99.90;;;;;;4905824;29;20455;-78
2024/01/26 06:05:22;;;;;;;26.57;19.03;;;10.30;99.90;;;;;;4900004;29;20418;-78
2024/01/26 06:07:47;;;;;;;29.43;20.17;;;10.30;99.90;;;;;;4887477;29;20499;-78
2024/01/26 06:10:13;;;;;;;27.85;19.75;;;10.30;99.90;;;;;;4865231;29;20422;-78
2024/01/26 06:12:40;;;;;;;29.80;19.75;;;10.30;99.90;;;;;;4878693;29;20436;-78
2024/01/26 06:15:08;;;;;;;29.13;19.67;;;10.30;99.90;;;;;;4885000;29;20411;-78
2024/01/26 06:17:35;;;;;;;30.63;20.30;;;10.30;99.90;;;;;;4859384;29;20446;-78
2024/01/26 06:20:03;;;;;;;29.35;20.60;;;10.30;99.90;;;;;;4858656;29;20474;-78
2024/01/26 06:22:28;;;;;;;30.27;20.20;;;10.30;99.90;;;;;;4880753;29;20445;-79
2024/01/26 06:24:54;;;;;;;29.50;20.42;;;10.30;99.90;;;;;;4879972;29;20431;-79
2024/01/26 06:27:20;;;;;;;29.60;20.67;;;10.30;99.90;;;;;;4890095;29;20490;-79
2024/01/26 06:29:46;;;;;;;26.33;19.07;;;10.30;99.90;;;;;;4878608;29;20416;-78
2024/01/26 06:32:12;;;;;;;27.73;18.97;;;10.30;99.90;;;;;;4882214;29;20439;-78
2024/01/26 06:34:40;;;;;;;26.60;19.58;;;10.30;99.90;;;;;;4887680;29;20443;-78
2024/01/26 06:37:06;;;;;;;28.23;19.70;;;10.30;99.90;;;;;;4878957;29;20413;-78
2024/01/26 06:39:34;;;;;;;26.42;18.95;;;10.30;99.90;;;;;;4887919;29;20427;-78
2024/01/26 06:42:00;;;;;;;27.92;18.83;;;10.30;99.90;;;;;;4888037;29;20967;-78
2024/01/26 06:44:26;;;;;;;27.88;18.30;;;10.30;99.90;;;;;;4887554;29;20447;-78
2024/01/26 06:46:51;;;;;;;24.53;17.50;;;10.30;99.90;;;;;;4887027;29;20441;-78
2024/01/26 06:49:17;;;;;;;23.02;17.73;;;10.30;99.90;;;;;;4882706;29;20748;-77
2024/01/26 06:51:43;;;;;;;27.30;18.35;;;10.40;99.90;;;;;;4882367;29;20426;-77
2024/01/26 06:54:08;;;;;;;25.33;17.00;;;10.30;99.90;;;;;;4877744;29;20418;-76
2024/01/26 06:56:34;;;;;;;22.50;16.08;;;10.40;99.90;;;;;;4880569;29;20416;-77
2024/01/26 06:59:00;;;;;;;25.73;17.57;;;10.40;99.90;;;;;;4890327;29;20422;-77
2024/01/26 07:01:25;;;;;;;26.58;16.98;;;10.40;99.90;;;;;;4890673;29;20446;-77
2024/01/26 07:03:51;;;;;;;23.87;16.63;;;10.40;99.90;;;;;;4888502;29;20929;-77
2024/01/26 07:06:16;;;;;;;25.93;17.00;;;10.50;99.90;;;;;;4889468;29;20893;-77
2024/01/26 07:08:42;;;;;;;22.63;15.60;;;10.40;99.90;;;;;;4887950;29;20423;-77
2024/01/26 07:11:08;;;;;;;23.27;15.37;;;10.40;99.90;;;;;;4888318;29;20473;-77
2024/01/26 07:13:33;;;;;;;22.23;14.50;;;10.40;99.90;;;;;;4881163;29;20513;-77
2024/01/26 07:15:59;;;;;;;21.27;14.37;;;10.40;99.90;;;;;;4892574;29;20407;-77
2024/01/26 07:18:24;;;;;;;22.10;13.90;;;10.40;99.90;;;;;;4890287;29;21322;-78
2024/01/26 07:20:50;;;;;;;18.57;12.10;;;10.40;99.90;;;;;;4891805;29;20419;-78
2024/01/26 07:23:15;;;;;;;20.60;12.70;;;10.40;99.90;;;;;;4880660;29;20801;-77
2024/01/26 07:25:41;;;;;;;18.03;12.70;;;10.50;99.90;;;;;;4892564;29;20415;-77
2024/01/26 07:28:07;;;;;;;19.80;12.40;;;10.50;99.90;;;;;;4890555;29;20421;-77
2024/01/26 07:30:33;;;;;;;15.13;11.23;;;10.40;99.90;;;;;;4892840;29;20422;-77
2024/01/26 07:32:59;;;;;;;15.33;10.83;;;10.50;99.90;;;;;;4878124;29;20421;-77
2024/01/26 07:35:24;;;;;;;14.93;10.20;;;10.50;99.90;;;;;;4876138;29;20525;-77
2024/01/26 07:37:50;;;;;;;16.10;9.90;;;10.50;99.90;;;;;;4890087;29;20559;-77
2024/01/26 07:40:16;;;;;;;14.07;8.53;;;10.50;99.90;;;;;;4892583;29;20406;-77
2024/01/26 07:42:41;;;;;;;12.70;8.68;;;10.50;99.90;;;;;;4889707;29;21069;-77
2024/01/26 07:45:07;;;;;;;13.15;8.90;;;10.50;99.90;;;;;;4892050;29;20488;-77
2024/01/26 07:47:36;;;;;;;14.45;9.10;;;10.60;99.90;;;;;;4866496;29;20501;-77
2024/01/26 07:50:03;;;;;;;13.88;8.80;;;10.50;99.90;;;;;;4879917;29;20427;-76
2024/01/26 07:52:29;;;;;;;11.73;8.38;;;10.50;99.90;;;;;;4888956;29;21151;-77
2024/01/26 07:54:54;;;;;;;11.45;7.78;;;10.60;99.90;;;;;;4891307;29;20426;-76
2024/01/26 07:57:21;;;;;;;12.23;7.97;;;10.60;99.90;;;;;;4879450;29;20411;-76
2024/01/26 07:59:48;;;;;;;10.83;7.73;;;10.60;99.90;;;;;;4881854;29;20428;-77
2024/01/26 08:02:13;;;;;;;12.32;8.15;;;10.50;99.90;;;;;;4879398;29;20457;-76
2024/01/26 08:04:39;;;;;;;11.07;7.30;;;10.50;99.90;;;;;;4890495;29;20421;-76
2024/01/26 08:07:05;;;;;;;11.10;7.70;;;10.50;99.90;;;;;;4887066;29;20830;-77
2024/01/26 08:09:30;;;;;;;9.88;6.45;;;10.50;99.90;;;;;;4890280;29;21265;-77
2024/01/26 08:11:56;;;;;;;9.93;6.70;;;10.50;99.90;;;;;;4884538;29;20780;-77
2024/01/26 08:14:22;;;;;;;10.88;6.70;;;10.50;99.90;;;;;;4885845;29;20486;-77
2024/01/26 08:16:47;;;;;;;10.00;6.57;;;10.50;99.90;;;;;;4889601;29;20429;-77
2024/01/26 08:19:13;;;;;;;10.23;6.15;;;10.50;99.90;;;;;;4892041;29;20418;-76
2024/01/26 08:21:38;;;;;;;9.63;6.20;;;10.60;99.90;;;;;;4888499;29;20422;-77
2024/01/26 08:24:04;;;;;;;7.95;5.45;;;10.50;99.90;;;;;;4890810;29;20450;-77
2024/01/26 08:26:30;;;;;;;9.67;5.57;;;10.60;99.90;;;;;;4890078;29;20765;-77
2024/01/26 08:28:55;;;;;;;9.00;5.60;;;10.60;99.90;;;;;;4890321;29;20422;-77
2024/01/26 08:31:21;;;;;;;9.40;5.93;;;10.60;99.90;;;;;;4880234;29;20785;-77
2024/01/26 08:33:47;;;;;;;9.63;5.73;;;10.60;99.90;;;;;;4881237;29;20416;-77
2024/01/26 08:36:13;;;;;;;9.80;5.80;;;10.60;99.90;;;;;;4888357;29;20996;-76
2024/01/26 08:38:39;;;;;;;7.25;4.95;;;10.60;99.90;;;;;;4890390;29;20421;-77
2024/01/26 08:41:08;;;;;;;7.57;4.95;;;10.60;99.90;;;;;;4887971;29;20466;-77
2024/01/26 08:43:33;;;;;;;8.45;5.22;;;10.60;99.90;;;;;;4872299;29;20443;-76
2024/01/26 08:45:59;;;;;;;9.13;5.27;;;10.60;99.90;;;;;;4888847;29;20777;-77
2024/01/26 08:48:25;;;;;;;8.13;4.72;;;10.60;99.90;;;;;;4888760;29;20964;-76
2024/01/26 08:50:51;;;;;;;6.82;4.40;;;10.60;99.90;;;;;;4888137;29;20438;-77
2024/01/26 08:53:16;;;;;;;7.07;4.80;;;10.60;99.90;;;;;;4888732;29;20944;-77
2024/01/26 08:55:42;;;;;;;7.07;4.00;;;10.60;99.90;;;;;;4887925;29;20792;-77
2024/01/26 08:58:08;;;;;;;5.55;3.47;;;10.60;99.90;;;;;;4886748;29;20426;-76
2024/01/26 09:00:34;;;;;;;3.80;2.50;;;10.60;99.90;;;;;;4885734;29;20415;-77
2024/01/26 09:03:00;;;;;;;5.00;2.78;;;10.60;99.90;;;;;;4863071;29;20442;-77
2024/01/26 09:05:26;;;;;;;5.07;3.10;;;10.60;99.90;;;;;;4885931;29;20478;-77
2024/01/26 09:07:51;;;;;;;5.67;3.27;;;10.60;99.90;;;;;;4879421;29;20477;-76
2024/01/26 09:10:19;;;;;;;9.25;4.00;;;10.60;99.90;;;;;;4886567;29;20438;-76
2024/01/26 09:12:44;;;;;;;7.20;4.07;;;10.60;99.90;;;;;;4878901;29;20882;-77
2024/01/26 09:15:10;;;;;;;10.80;4.70;;;10.60;99.90;;;;;;4889735;29;20442;-76
2024/01/26 09:17:37;;;;;;;10.98;5.10;;;10.60;99.90;;;;;;4890780;29;20823;-76
2024/01/26 09:20:03;;;;;;;11.65;5.20;;;10.50;99.90;;;;;;4888681;29;20430;-76
2024/01/26 09:22:29;;;;;;;13.45;5.45;;;10.60;99.90;;;;;;4880770;29;20425;-76
2024/01/26 09:24:54;;;;;;;13.30;5.65;;;10.60;99.90;;;;;;4886648;29;20423;-77
2024/01/26 09:27:21;;;;;;;9.03;2.53;;;10.50;99.90;;;;;;4889926;29;20537;-77
2024/01/26 09:29:47;;;;;;;8.23;2.03;;;10.40;99.90;;;;;;4888607;29;20419;-77
2024/01/26 09:32:13;;;;;;;6.60;1.13;;;10.20;99.90;;;;;;4890706;29;20422;-76
2024/01/26 09:34:38;;;;;;;7.22;1.10;;;10.00;99.90;;;;;;4878154;29;20766;-77
2024/01/26 09:37:04;;;;;;;6.43;1.20;;;9.70;99.90;;;;;;4853692;29;20417;-77
2024/01/26 09:39:30;;;;;;;5.45;0.90;;;9.50;99.90;;;;;;4886170;29;20478;-76
2024/01/26 09:41:55;;;;;;;6.03;0.68;;;9.40;99.90;;;;;;4887396;29;20932;-77
2024/01/26 09:44:21;;;;;;;6.77;0.80;;;9.30;99.90;;;;;;4885327;29;20779;-77
2024/01/26 09:46:47;;;;;;;11.75;1.63;;;9.20;99.90;;;;;;4887249;29;20497;-76
2024/01/26 09:49:13;;;;;;;9.02;1.30;;;9.20;99.90;;;;;;4884992;29;20563;-76
2024/01/26 09:51:39;;;;;;;10.38;1.95;;;9.20;99.90;;;;;;4886979;29;20851;-77
2024/01/26 09:54:11;;;;;;;11.40;1.55;;;9.20;99.90;;;;;;4869516;29;20467;-76
2024/01/26 09:56:39;;;;;;;11.10;1.73;;;9.10;99.90;;;;;;4886781;29;20427;-76
2024/01/26 09:59:08;;;;;;;10.93;1.90;;;9.00;99.90;;;;;;4885751;29;20546;-76
2024/01/26 10:01:34;;;;;;;14.43;1.98;;;9.00;99.90;;;;;;4885567;29;20594;-76
2024/01/26 10:04:01;;;;;;;12.13;1.70;;;8.90;99.90;;;;;;4886405;29;20952;-77
2024/01/26 10:06:26;;;;;;;12.48;2.15;;;8.90;99.90;;;;;;4884877;29;20428;-76
2024/01/26 10:08:52;;;;;;;11.27;1.60;;;8.90;99.90;;;;;;4885580;29;20427;-76
2024/01/26 10:11:18;;;;;;;16.25;2.38;;;8.80;99.90;;;;;;4884742;29;20507;-76
2024/01/26 10:13:43;;;;;;;12.87;1.93;;;8.80;99.90;;;;;;4879777;29;20414;-76
2024/01/26 10:16:13;;;;;;;13.88;2.25;;;8.70;99.90;;;;;;4888617;29;20418;-76
2024/01/26 10:18:43;;;;;;;13.70;1.80;;;8.70;99.90;;;;;;4888934;29;20411;-76
2024/01/26 10:21:13;;;;;;;16.95;2.67;;;8.70;99.90;;;;;;4887134;29;20424;-76
2024/01/26 10:23:40;;;;;;;18.20;3.13;;;8.60;99.90;;;;;;4874486;29;20799;-76
2024/01/26 10:26:05;;;;;;;17.58;3.10;;;8.60;99.90;;;;;;4866443;29;20508;-76
2024/01/26 10:28:31;;;;;;;21.48;3.45;;;8.60;99.90;;;;;;4889366;29;20475;-76
2024/01/26 10:30:57;;;;;;;18.70;3.20;;;8.60;99.90;;;;;;4888899;29;20412;-76
2024/01/26 10:33:24;;;;;;;17.77;3.07;;;8.70;99.90;;;;;;4885840;29;20422;-76
2024/01/26 10:36:00;;;;;;;18.45;2.90;;;8.70;99.90;;;;;;4890012;29;20692;-76
2024/01/26 10:38:28;;;;;;;20.40;3.60;;;8.70;99.90;;;;;;4887850;29;20450;-77
2024/01/26 10:41:01;;;;;;;21.20;3.15;;;8.70;99.90;;;;;;4889622;29;21030;-76
2024/01/26 10:43:28;;;;;;;17.02;3.00;;;8.80;99.90;;;;;;4888600;29;20438;-76
2024/01/26 10:45:55;;;;;;;15.47;2.63;;;8.80;99.10;;;;;;4884825;29;20975;-76
2024/01/26 10:48:22;;;;;;;16.70;2.45;;;8.90;98.10;;;;;;4888662;29;20418;-76
2024/01/26 10:50:48;;;;;;;15.68;2.92;;;8.80;93.90;;;;;;4891633;29;20470;-76
2024/01/26 10:53:15;;;;;;;15.88;3.25;;;8.80;93.10;;;;;;4878108;29;20414;-76
2024/01/26 10:55:40;;;;;;;20.25;3.38;;;8.80;92.80;;;;;;4863159;29;20521;-77
2024/01/26 10:58:07;;;;;;;16.33;2.78;;;8.80;92.20;;;;;;4894674;29;20493;-76
2024/01/26 11:00:33;;;;;;;19.48;3.25;;;8.90;87.10;;;;;;4872631;29;20424;-76
2024/01/26 11:02:59;;;;;;;17.53;3.47;;;8.90;86.80;;;;;;4888184;29;20459;-76
2024/01/26 11:05:25;;;;;;;21.15;3.58;;;8.90;87.00;;;;;;4873821;29;20484;-76
2024/01/26 11:07:52;;;;;;;18.27;3.13;;;8.90;88.00;;;;;;4893569;29;20466;-76
2024/01/26 11:10:24;;;;;;;15.88;2.97;;;8.90;83.00;;;;;;4890083;29;20806;-76
2024/01/26 11:13:13;;;;;;;15.50;2.90;;;8.90;87.10;;;;;;4884303;29;21038;-76
2024/01/26 11:15:42;;;;;;;19.40;3.10;;;8.90;82.50;;;;;;4880684;29;20501;-77
2024/01/26 11:18:07;;;;;;;18.83;3.03;;;8.90;86.10;;;;;;4894558;29;20424;-76
2024/01/26 11:20:35;;;;;;;15.60;2.93;;;8.90;84.00;;;;;;4896530;29;20494;-76
2024/01/26 11:23:11;;;;;;;18.50;3.27;;;9.00;83.70;;;;;;4893249;29;20531;-76
2024/01/26 11:25:57;;;;;;;16.13;2.57;;;9.10;80.50;;;;;;4896390;29;20875;-76
2024/01/26 11:28:29;;;;;;;19.17;3.67;;;9.20;70.60;;;;;;4895177;29;20509;-77
2024/01/26 11:30:58;;;;;;;18.25;2.70;;;9.10;73.50;;;;;;4892767;29;20428;-76
2024/01/26 11:33:24;;;;;;;16.05;2.95;;;9.10;73.10;;;;;;4896212;29;20415;-76
2024/01/26 11:36:02;;;;;;;16.17;2.97;;;9.00;71.10;;;;;;4883249;29;20427;-76
2024/01/26 11:38:29;;;;;;;14.82;3.08;;;8.90;70.30;;;;;;4899055;29;20419;-76
2024/01/26 11:40:57;;;;;;;16.15;2.95;;;8.90;72.90;;;;;;4894205;29;20415;-76
2024/01/26 11:43:25;;;;;;;15.55;2.72;;;8.90;71.30;;;;;;4893363;29;20982;-76
2024/01/26 11:45:51;;;;;;;14.45;2.88;;;8.90;61.10;;;;;;4891157;29;20415;-76
2024/01/26 11:48:18;;;;;;;18.50;3.42;;;8.90;65.50;;;;;;4894019;29;20414;-76
2024/01/26 11:50:46;;;;;;;20.97;3.70;;;8.90;63.70;;;;;;4891178;29;20433;-76
2024/01/26 11:53:16;;;;;;;19.80;3.10;;;9.00;60.90;;;;;;4893608;29;20423;-76
2024/01/26 11:55:42;;;;;;;18.80;3.58;;;9.00;62.20;;;;;;4889121;29;20801;-77
2024/01/26 11:58:09;;;;;;;21.80;3.70;;;9.00;62.10;;;;;;4891872;29;20956;-76
2024/01/26 12:00:35;;;;;;;17.58;3.28;;;8.90;55.10;;;;;;4874310;29;20418;-76
2024/01/26 12:03:09;;;;;;;24.57;3.83;;;8.90;55.20;;;;;;4891271;29;20937;-77
2024/01/26 12:05:36;;;;;;;16.98;3.22;;;8.90;48.00;;;;;;4891304;29;20458;-76
2024/01/26 12:08:05;;;;;;;21.60;3.83;;;8.80;47.40;;;;;;4889680;29;20425;-76
2024/01/26 12:10:32;;;;;;;20.88;3.60;;;8.80;49.20;;;;;;4891620;29;20423;-77
2024/01/26 12:12:58;;;;;;;17.92;3.28;;;8.70;45.40;;;;;;4880283;29;20468;-76
2024/01/26 12:15:31;;;;;;;16.75;3.45;;;8.80;54.00;;;;;;4886701;29;20544;-77
2024/01/26 12:18:00;;;;;;;16.40;2.97;;;8.80;50.60;;;;;;4887638;29;20416;-76
2024/01/26 12:20:26;;;;;;;18.73;3.65;;;8.70;52.00;;;;;;4892597;29;20418;-76
2024/01/26 12:22:55;;;;;;;23.90;4.25;;;8.60;58.30;;;;;;4889646;29;20448;-76
2024/01/26 12:25:23;;;;;;;22.20;4.07;;;8.50;66.00;;;;;;4893045;29;20419;-77
2024/01/26 12:27:49;;;;;;;23.27;3.88;;;8.40;70.40;;;;;;4888093;29;20417;-76
2024/01/26 12:30:15;;;;;;;24.75;4.43;;;8.30;75.60;;;;;;4883981;29;20419;-76
2024/01/26 12:32:41;;;;;;;18.45;3.08;;;8.20;78.00;;;;;;4889760;29;20475;-76
2024/01/26 12:35:07;;;;;;;20.90;3.83;;;8.10;79.00;;;;;;4875537;29;20433;-76